sensor_id;sensor_type;location;lat;lon;timestamp;P1;durP1;ratioP1;P2;durP2;ratioP2
10884;SDS011;5495;53.252;10.390;2022-08-04T00:01:28;8.63;;;3.57;;
10884;SDS011;5495;53.252;10.390;2022-08-04T00:04:01;9.63;;;3.77;;
10884;SDS011;5495;53.252;10.390;2022-08-04T00:06:38;9.60;;;3.53;;
10884;SDS011;5495;53.252;10.390;2022-08-04T00:09:27;6.37;;;3.50;;
10884;SDS011;5495;53.252;10.390;2022-08-04T00:11:56;8.10;;;3.40;;
10884;SDS011;5495;53.252;10.390;2022-08-04T00:14:27;9.27;;;3.03;;
10884;SDS011;5495;53.252;10.390;2022-08-04T00:17:02;5.53;;;3.60;;
10884;SDS011;5495;53.252;10.390;2022-08-04T00:19:35;7.43;;;3.70;;
10884;SDS011;5495;53.252;10.390;2022-08-04T00:22:08;8.60;;;3.83;;
10884;SDS011;5495;53.252;10.390;2022-08-04T00:24:36;9.53;;;2.97;;
10884;SDS011;5495;53.252;10.390;2022-08-04T00:27:04;7.83;;;3.63;;
10884;SDS011;5495;53.252;10.390;2022-08-04T00:29:36;9.10;;;3.53;;
10884;SDS011;5495;53.252;10.390;2022-08-04T00:32:05;5.20;;;3.20;;
10884;SDS011;5495;53.252;10.390;2022-08-04T00:34:35;8.03;;;4.07;;
10884;SDS011;5495;53.252;10.390;2022-08-04T00:37:05;9.17;;;3.40;;
10884;SDS011;5495;53.252;10.390;2022-08-04T00:39:33;11.07;;;3.73;;
10884;SDS011;5495;53.252;10.390;2022-08-04T00:48:00;7.97;;;3.17;;
10884;SDS011;5495;53.252;10.390;2022-08-04T00:50:43;5.43;;;3.33;;
10884;SDS011;5495;53.252;10.390;2022-08-04T00:53:17;4.63;;;3.37;;
10884;SDS011;5495;53.252;10.390;2022-08-04T00:56:10;10.47;;;3.30;;
10884;SDS011;5495;53.252;10.390;2022-08-04T00:58:56;8.27;;;3.80;;
10884;SDS011;5495;53.252;10.390;2022-08-04T01:01:37;9.07;;;3.70;;
10884;SDS011;5495;53.252;10.390;2022-08-04T01:04:20;6.57;;;3.60;;
10884;SDS011;5495;53.252;10.390;2022-08-04T01:07:02;9.97;;;3.50;;
10884;SDS011;5495;53.252;10.390;2022-08-04T01:09:46;9.20;;;3.50;;
10884;SDS011;5495;53.252;10.390;2022-08-04T01:12:29;10.97;;;3.67;;
10884;SDS011;5495;53.252;10.390;2022-08-04T01:15:17;9.57;;;3.93;;
10884;SDS011;5495;53.252;10.390;2022-08-04T01:17:55;10.57;;;3.87;;
10884;SDS011;5495;53.252;10.390;2022-08-04T01:20:31;8.67;;;3.97;;
10884;SDS011;5495;53.252;10.390;2022-08-04T01:29:17;6.13;;;3.57;;
10884;SDS011;5495;53.252;10.390;2022-08-04T01:31:49;6.07;;;3.57;;
10884;SDS011;5495;53.252;10.390;2022-08-04T01:34:27;9.70;;;3.60;;
10884;SDS011;5495;53.252;10.390;2022-08-04T01:37:03;9.80;;;3.93;;
10884;SDS011;5495;53.252;10.390;2022-08-04T01:39:42;8.67;;;3.53;;
10884;SDS011;5495;53.252;10.390;2022-08-04T01:42:16;8.33;;;3.53;;
10884;SDS011;5495;53.252;10.390;2022-08-04T01:44:51;12.13;;;3.97;;
10884;SDS011;5495;53.252;10.390;2022-08-04T01:47:21;11.33;;;3.83;;
10884;SDS011;5495;53.252;10.390;2022-08-04T01:49:50;7.17;;;3.83;;
10884;SDS011;5495;53.252;10.390;2022-08-04T01:52:20;5.83;;;3.60;;
10884;SDS011;5495;53.252;10.390;2022-08-04T01:54:49;6.77;;;3.23;;
10884;SDS011;5495;53.252;10.390;2022-08-04T01:57:18;7.40;;;3.17;;
10884;SDS011;5495;53.252;10.390;2022-08-04T01:59:46;9.53;;;3.67;;
10884;SDS011;5495;53.252;10.390;2022-08-04T02:02:16;7.73;;;3.73;;
10884;SDS011;5495;53.252;10.390;2022-08-04T02:04:48;7.00;;;3.20;;
10884;SDS011;5495;53.252;10.390;2022-08-04T02:07:27;8.30;;;3.20;;
10884;SDS011;5495;53.252;10.390;2022-08-04T02:10:11;10.50;;;3.30;;
10884;SDS011;5495;53.252;10.390;2022-08-04T02:12:54;9.50;;;3.40;;
10884;SDS011;5495;53.252;10.390;2022-08-04T02:15:29;10.43;;;3.83;;
10884;SDS011;5495;53.252;10.390;2022-08-04T02:18:07;8.43;;;3.90;;
10884;SDS011;5495;53.252;10.390;2022-08-04T02:20:42;7.53;;;3.53;;
10884;SDS011;5495;53.252;10.390;2022-08-04T02:23:14;8.70;;;3.47;;
10884;SDS011;5495;53.252;10.390;2022-08-04T02:25:47;8.17;;;3.53;;
10884;SDS011;5495;53.252;10.390;2022-08-04T02:28:23;9.73;;;3.80;;
10884;SDS011;5495;53.252;10.390;2022-08-04T02:31:06;8.33;;;3.40;;
10884;SDS011;5495;53.252;10.390;2022-08-04T02:33:42;8.37;;;3.67;;
10884;SDS011;5495;53.252;10.390;2022-08-04T02:36:13;6.60;;;3.67;;
10884;SDS011;5495;53.252;10.390;2022-08-04T02:38:50;6.37;;;3.13;;
10884;SDS011;5495;53.252;10.390;2022-08-04T02:41:21;8.30;;;3.60;;
10884;SDS011;5495;53.252;10.390;2022-08-04T02:43:51;9.87;;;3.47;;
10884;SDS011;5495;53.252;10.390;2022-08-04T02:46:21;9.23;;;3.77;;
10884;SDS011;5495;53.252;10.390;2022-08-04T02:48:51;10.50;;;3.53;;
10884;SDS011;5495;53.252;10.390;2022-08-04T02:51:24;9.30;;;3.63;;
10884;SDS011;5495;53.252;10.390;2022-08-04T02:53:54;9.33;;;3.90;;
10884;SDS011;5495;53.252;10.390;2022-08-04T02:56:27;7.87;;;3.60;;
10884;SDS011;5495;53.252;10.390;2022-08-04T02:58:57;5.40;;;3.30;;
10884;SDS011;5495;53.252;10.390;2022-08-04T03:01:27;7.23;;;3.80;;
10884;SDS011;5495;53.252;10.390;2022-08-04T03:03:59;8.60;;;3.03;;
10884;SDS011;5495;53.252;10.390;2022-08-04T03:10:02;7.00;;;3.50;;
10884;SDS011;5495;53.252;10.390;2022-08-04T03:16:01;8.83;;;4.00;;
10884;SDS011;5495;53.252;10.390;2022-08-04T03:19:05;7.33;;;3.53;;
10884;SDS011;5495;53.252;10.390;2022-08-04T03:22:00;8.17;;;3.13;;
10884;SDS011;5495;53.252;10.390;2022-08-04T03:31:05;7.07;;;3.70;;
10884;SDS011;5495;53.252;10.390;2022-08-04T03:33:45;8.03;;;3.70;;
10884;SDS011;5495;53.252;10.390;2022-08-04T03:49:02;9.03;;;3.80;;
10884;SDS011;5495;53.252;10.390;2022-08-04T03:51:57;5.70;;;3.50;;
10884;SDS011;5495;53.252;10.390;2022-08-04T03:55:01;7.87;;;3.40;;
10884;SDS011;5495;53.252;10.390;2022-08-04T04:01:17;6.40;;;3.73;;
10884;SDS011;5495;53.252;10.390;2022-08-04T04:04:15;8.17;;;3.30;;
10884;SDS011;5495;53.252;10.390;2022-08-04T04:10:17;5.17;;;3.10;;
10884;SDS011;5495;53.252;10.390;2022-08-04T04:13:17;5.90;;;3.20;;
10884;SDS011;5495;53.252;10.390;2022-08-04T04:16:06;4.70;;;3.37;;
10884;SDS011;5495;53.252;10.390;2022-08-04T04:21:51;10.97;;;3.47;;
10884;SDS011;5495;53.252;10.390;2022-08-04T04:24:48;6.13;;;3.60;;
10884;SDS011;5495;53.252;10.390;2022-08-04T04:27:36;7.17;;;3.17;;
10884;SDS011;5495;53.252;10.390;2022-08-04T04:30:11;9.50;;;3.20;;
10884;SDS011;5495;53.252;10.390;2022-08-04T04:32:56;5.90;;;3.20;;
10884;SDS011;5495;53.252;10.390;2022-08-04T04:35:34;6.17;;;3.27;;
10884;SDS011;5495;53.252;10.390;2022-08-04T04:38:13;7.77;;;3.47;;
10884;SDS011;5495;53.252;10.390;2022-08-04T04:41:04;6.47;;;3.47;;
10884;SDS011;5495;53.252;10.390;2022-08-04T04:43:53;6.77;;;3.30;;
10884;SDS011;5495;53.252;10.390;2022-08-04T04:46:36;7.43;;;3.20;;
10884;SDS011;5495;53.252;10.390;2022-08-04T04:49:13;6.70;;;3.30;;
10884;SDS011;5495;53.252;10.390;2022-08-04T04:51:50;5.53;;;3.30;;
10884;SDS011;5495;53.252;10.390;2022-08-04T04:54:25;6.90;;;3.30;;
10884;SDS011;5495;53.252;10.390;2022-08-04T04:57:02;7.03;;;3.33;;
10884;SDS011;5495;53.252;10.390;2022-08-04T04:59:38;8.10;;;3.10;;
10884;SDS011;5495;53.252;10.390;2022-08-04T05:08:29;7.30;;;3.83;;
10884;SDS011;5495;53.252;10.390;2022-08-04T05:11:12;8.17;;;3.40;;
10884;SDS011;5495;53.252;10.390;2022-08-04T05:13:58;8.63;;;3.60;;
10884;SDS011;5495;53.252;10.390;2022-08-04T05:16:32;7.07;;;3.50;;
10884;SDS011;5495;53.252;10.390;2022-08-04T05:19:11;7.97;;;3.37;;
10884;SDS011;5495;53.252;10.390;2022-08-04T05:21:50;5.20;;;3.20;;
10884;SDS011;5495;53.252;10.390;2022-08-04T05:24:25;7.33;;;3.73;;
10884;SDS011;5495;53.252;10.390;2022-08-04T05:26:55;7.37;;;3.47;;
10884;SDS011;5495;53.252;10.390;2022-08-04T05:29:30;10.63;;;3.80;;
10884;SDS011;5495;53.252;10.390;2022-08-04T05:32:04;5.07;;;4.20;;
10884;SDS011;5495;53.252;10.390;2022-08-04T05:34:38;5.87;;;3.50;;
10884;SDS011;5495;53.252;10.390;2022-08-04T05:37:09;9.10;;;3.57;;
10884;SDS011;5495;53.252;10.390;2022-08-04T05:39:42;10.20;;;3.50;;
10884;SDS011;5495;53.252;10.390;2022-08-04T05:42:11;6.60;;;4.00;;
10884;SDS011;5495;53.252;10.390;2022-08-04T05:44:40;8.40;;;3.63;;
10884;SDS011;5495;53.252;10.390;2022-08-04T05:47:11;6.50;;;3.73;;
10884;SDS011;5495;53.252;10.390;2022-08-04T05:49:40;7.47;;;4.67;;
10884;SDS011;5495;53.252;10.390;2022-08-04T05:52:08;10.97;;;3.63;;
10884;SDS011;5495;53.252;10.390;2022-08-04T05:54:41;8.20;;;3.93;;
10884;SDS011;5495;53.252;10.390;2022-08-04T05:57:09;8.67;;;3.80;;
10884;SDS011;5495;53.252;10.390;2022-08-04T05:59:38;8.43;;;3.83;;
10884;SDS011;5495;53.252;10.390;2022-08-04T06:02:13;7.87;;;4.07;;
10884;SDS011;5495;53.252;10.390;2022-08-04T06:04:46;5.57;;;3.40;;
10884;SDS011;5495;53.252;10.390;2022-08-04T06:07:16;7.03;;;3.70;;
10884;SDS011;5495;53.252;10.390;2022-08-04T06:09:46;7.97;;;3.67;;
10884;SDS011;5495;53.252;10.390;2022-08-04T06:12:14;7.30;;;3.90;;
10884;SDS011;5495;53.252;10.390;2022-08-04T06:14:47;7.00;;;3.33;;
10884;SDS011;5495;53.252;10.390;2022-08-04T06:17:21;5.57;;;3.67;;
10884;SDS011;5495;53.252;10.390;2022-08-04T06:19:52;5.13;;;3.53;;
10884;SDS011;5495;53.252;10.390;2022-08-04T06:22:21;6.90;;;3.37;;
10884;SDS011;5495;53.252;10.390;2022-08-04T06:24:53;7.83;;;3.40;;
10884;SDS011;5495;53.252;10.390;2022-08-04T06:27:23;5.13;;;3.37;;
10884;SDS011;5495;53.252;10.390;2022-08-04T06:29:51;8.93;;;3.90;;
10884;SDS011;5495;53.252;10.390;2022-08-04T06:32:20;7.40;;;3.30;;
10884;SDS011;5495;53.252;10.390;2022-08-04T06:35:01;7.30;;;3.60;;
10884;SDS011;5495;53.252;10.390;2022-08-04T06:37:33;9.83;;;4.03;;
10884;SDS011;5495;53.252;10.390;2022-08-04T06:40:03;8.67;;;3.93;;
10884;SDS011;5495;53.252;10.390;2022-08-04T06:42:35;7.43;;;3.23;;
10884;SDS011;5495;53.252;10.390;2022-08-04T06:45:09;8.63;;;3.87;;
10884;SDS011;5495;53.252;10.390;2022-08-04T06:47:39;12.50;;;3.93;;
10884;SDS011;5495;53.252;10.390;2022-08-04T06:50:10;7.17;;;4.13;;
10884;SDS011;5495;53.252;10.390;2022-08-04T06:52:39;8.27;;;4.17;;
10884;SDS011;5495;53.252;10.390;2022-08-04T06:55:09;12.33;;;3.87;;
10884;SDS011;5495;53.252;10.390;2022-08-04T06:57:37;9.17;;;3.63;;
10884;SDS011;5495;53.252;10.390;2022-08-04T07:00:09;11.13;;;3.70;;
10884;SDS011;5495;53.252;10.390;2022-08-04T07:02:43;7.43;;;3.80;;
10884;SDS011;5495;53.252;10.390;2022-08-04T07:05:16;9.33;;;3.70;;
10884;SDS011;5495;53.252;10.390;2022-08-04T07:07:44;6.27;;;3.77;;
10884;SDS011;5495;53.252;10.390;2022-08-04T07:10:13;5.43;;;4.10;;
10884;SDS011;5495;53.252;10.390;2022-08-04T07:12:41;8.50;;;3.63;;
10884;SDS011;5495;53.252;10.390;2022-08-04T07:15:11;9.97;;;3.83;;
10884;SDS011;5495;53.252;10.390;2022-08-04T07:17:40;10.53;;;3.80;;
10884;SDS011;5495;53.252;10.390;2022-08-04T07:20:12;6.83;;;3.63;;
10884;SDS011;5495;53.252;10.390;2022-08-04T07:22:40;8.17;;;3.50;;
10884;SDS011;5495;53.252;10.390;2022-08-04T07:25:09;7.40;;;4.20;;
10884;SDS011;5495;53.252;10.390;2022-08-04T07:27:37;8.10;;;3.87;;
10884;SDS011;5495;53.252;10.390;2022-08-04T07:30:05;9.37;;;3.83;;
10884;SDS011;5495;53.252;10.390;2022-08-04T07:32:34;6.93;;;2.97;;
10884;SDS011;5495;53.252;10.390;2022-08-04T07:35:05;6.93;;;3.00;;
10884;SDS011;5495;53.252;10.390;2022-08-04T07:37:34;8.67;;;3.00;;
10884;SDS011;5495;53.252;10.390;2022-08-04T07:40:03;9.43;;;3.40;;
10884;SDS011;5495;53.252;10.390;2022-08-04T07:42:32;6.30;;;3.47;;
10884;SDS011;5495;53.252;10.390;2022-08-04T07:45:00;5.60;;;2.93;;
10884;SDS011;5495;53.252;10.390;2022-08-04T07:47:27;7.37;;;3.43;;
10884;SDS011;5495;53.252;10.390;2022-08-04T07:49:58;9.10;;;3.30;;
10884;SDS011;5495;53.252;10.390;2022-08-04T07:52:28;8.87;;;3.13;;
10884;SDS011;5495;53.252;10.390;2022-08-04T07:54:57;6.07;;;3.10;;
10884;SDS011;5495;53.252;10.390;2022-08-04T07:57:25;7.13;;;3.33;;
10884;SDS011;5495;53.252;10.390;2022-08-04T07:59:53;7.10;;;3.53;;
10884;SDS011;5495;53.252;10.390;2022-08-04T08:02:20;5.27;;;3.27;;
10884;SDS011;5495;53.252;10.390;2022-08-04T08:04:49;10.00;;;3.80;;
10884;SDS011;5495;53.252;10.390;2022-08-04T08:07:17;5.27;;;3.40;;
10884;SDS011;5495;53.252;10.390;2022-08-04T08:09:46;9.27;;;3.67;;
10884;SDS011;5495;53.252;10.390;2022-08-04T08:12:14;6.33;;;3.37;;
10884;SDS011;5495;53.252;10.390;2022-08-04T08:14:42;3.47;;;2.73;;
10884;SDS011;5495;53.252;10.390;2022-08-04T08:17:10;9.23;;;3.30;;
10884;SDS011;5495;53.252;10.390;2022-08-04T08:19:39;5.97;;;3.43;;
10884;SDS011;5495;53.252;10.390;2022-08-04T08:22:06;7.37;;;3.27;;
10884;SDS011;5495;53.252;10.390;2022-08-04T08:24:36;7.63;;;3.17;;
10884;SDS011;5495;53.252;10.390;2022-08-04T08:27:06;8.03;;;3.07;;
10884;SDS011;5495;53.252;10.390;2022-08-04T08:29:34;5.90;;;3.27;;
10884;SDS011;5495;53.252;10.390;2022-08-04T08:32:03;4.77;;;2.97;;
10884;SDS011;5495;53.252;10.390;2022-08-04T08:34:37;6.17;;;3.03;;
10884;SDS011;5495;53.252;10.390;2022-08-04T08:37:08;6.20;;;3.23;;
10884;SDS011;5495;53.252;10.390;2022-08-04T08:39:45;4.37;;;2.70;;
10884;SDS011;5495;53.252;10.390;2022-08-04T08:42:29;3.60;;;2.83;;
10884;SDS011;5495;53.252;10.390;2022-08-04T08:45:34;5.63;;;2.60;;
10884;SDS011;5495;53.252;10.390;2022-08-04T08:48:29;3.17;;;2.53;;
10884;SDS011;5495;53.252;10.390;2022-08-04T08:51:26;7.00;;;2.43;;
10884;SDS011;5495;53.252;10.390;2022-08-04T08:57:05;3.83;;;2.80;;
10884;SDS011;5495;53.252;10.390;2022-08-04T08:59:51;2.87;;;2.20;;
10884;SDS011;5495;53.252;10.390;2022-08-04T09:05:39;4.93;;;2.53;;
10884;SDS011;5495;53.252;10.390;2022-08-04T09:08:24;2.93;;;2.63;;
10884;SDS011;5495;53.252;10.390;2022-08-04T09:11:08;3.83;;;2.47;;
10884;SDS011;5495;53.252;10.390;2022-08-04T09:13:42;6.80;;;2.50;;
10884;SDS011;5495;53.252;10.390;2022-08-04T09:16:15;5.40;;;2.60;;
10884;SDS011;5495;53.252;10.390;2022-08-04T09:18:46;2.40;;;2.20;;
10884;SDS011;5495;53.252;10.390;2022-08-04T09:21:23;2.50;;;2.27;;
10884;SDS011;5495;53.252;10.390;2022-08-04T09:23:58;4.23;;;2.30;;
10884;SDS011;5495;53.252;10.390;2022-08-04T09:26:33;4.30;;;2.80;;
10884;SDS011;5495;53.252;10.390;2022-08-04T09:29:07;4.90;;;2.23;;
10884;SDS011;5495;53.252;10.390;2022-08-04T09:31:43;2.70;;;2.33;;
10884;SDS011;5495;53.252;10.390;2022-08-04T09:34:19;3.63;;;2.23;;
10884;SDS011;5495;53.252;10.390;2022-08-04T09:36:55;2.97;;;2.40;;
10884;SDS011;5495;53.252;10.390;2022-08-04T09:39:39;3.73;;;2.57;;
10884;SDS011;5495;53.252;10.390;2022-08-04T09:42:16;4.13;;;2.20;;
10884;SDS011;5495;53.252;10.390;2022-08-04T09:44:51;2.67;;;2.40;;
10884;SDS011;5495;53.252;10.390;2022-08-04T09:47:30;6.37;;;2.77;;
10884;SDS011;5495;53.252;10.390;2022-08-04T09:50:03;7.10;;;2.50;;
10884;SDS011;5495;53.252;10.390;2022-08-04T09:52:42;5.83;;;2.80;;
10884;SDS011;5495;53.252;10.390;2022-08-04T09:55:19;3.70;;;2.40;;
10884;SDS011;5495;53.252;10.390;2022-08-04T09:58:01;2.47;;;2.27;;
10884;SDS011;5495;53.252;10.390;2022-08-04T10:00:36;4.37;;;2.60;;
10884;SDS011;5495;53.252;10.390;2022-08-04T10:03:12;4.63;;;2.37;;
10884;SDS011;5495;53.252;10.390;2022-08-04T10:05:44;3.43;;;2.40;;
10884;SDS011;5495;53.252;10.390;2022-08-04T10:08:28;3.23;;;2.60;;
10884;SDS011;5495;53.252;10.390;2022-08-04T10:11:20;9.60;;;3.40;;
10884;SDS011;5495;53.252;10.390;2022-08-04T10:13:59;6.07;;;2.70;;
10884;SDS011;5495;53.252;10.390;2022-08-04T10:16:34;7.00;;;3.13;;
10884;SDS011;5495;53.252;10.390;2022-08-04T10:19:13;3.67;;;2.67;;
10884;SDS011;5495;53.252;10.390;2022-08-04T10:22:00;4.07;;;2.83;;
10884;SDS011;5495;53.252;10.390;2022-08-04T10:24:38;4.00;;;2.73;;
10884;SDS011;5495;53.252;10.390;2022-08-04T10:27:21;7.20;;;2.80;;
10884;SDS011;5495;53.252;10.390;2022-08-04T10:29:51;4.17;;;2.93;;
10884;SDS011;5495;53.252;10.390;2022-08-04T10:32:26;4.90;;;2.83;;
10884;SDS011;5495;53.252;10.390;2022-08-04T10:35:04;5.10;;;2.70;;
10884;SDS011;5495;53.252;10.390;2022-08-04T10:37:39;3.67;;;2.73;;
10884;SDS011;5495;53.252;10.390;2022-08-04T10:40:13;4.27;;;2.57;;
10884;SDS011;5495;53.252;10.390;2022-08-04T10:43:15;4.33;;;2.80;;
10884;SDS011;5495;53.252;10.390;2022-08-04T10:45:51;2.90;;;2.70;;
10884;SDS011;5495;53.252;10.390;2022-08-04T10:48:26;4.27;;;3.00;;
10884;SDS011;5495;53.252;10.390;2022-08-04T10:51:08;6.90;;;2.63;;
10884;SDS011;5495;53.252;10.390;2022-08-04T10:53:44;4.30;;;2.90;;
10884;SDS011;5495;53.252;10.390;2022-08-04T10:56:18;3.30;;;2.60;;
10884;SDS011;5495;53.252;10.390;2022-08-04T10:58:59;5.67;;;2.57;;
10884;SDS011;5495;53.252;10.390;2022-08-04T11:01:36;2.80;;;2.27;;
10884;SDS011;5495;53.252;10.390;2022-08-04T11:04:08;6.37;;;2.73;;
10884;SDS011;5495;53.252;10.390;2022-08-04T11:06:45;4.67;;;2.60;;
10884;SDS011;5495;53.252;10.390;2022-08-04T11:09:13;4.70;;;2.50;;
10884;SDS011;5495;53.252;10.390;2022-08-04T11:11:44;2.67;;;2.47;;
10884;SDS011;5495;53.252;10.390;2022-08-04T11:14:18;2.20;;;1.90;;
10884;SDS011;5495;53.252;10.390;2022-08-04T11:16:49;2.53;;;2.10;;
10884;SDS011;5495;53.252;10.390;2022-08-04T11:19:24;2.43;;;2.00;;
10884;SDS011;5495;53.252;10.390;2022-08-04T11:22:04;3.27;;;2.37;;
10884;SDS011;5495;53.252;10.390;2022-08-04T11:24:36;3.13;;;2.50;;
10884;SDS011;5495;53.252;10.390;2022-08-04T11:27:11;3.17;;;2.47;;
10884;SDS011;5495;53.252;10.390;2022-08-04T11:29:45;2.67;;;2.03;;
10884;SDS011;5495;53.252;10.390;2022-08-04T11:32:24;2.30;;;2.10;;
10884;SDS011;5495;53.252;10.390;2022-08-04T11:34:59;6.03;;;2.77;;
10884;SDS011;5495;53.252;10.390;2022-08-04T11:37:39;2.40;;;2.20;;
10884;SDS011;5495;53.252;10.390;2022-08-04T11:40:12;3.10;;;2.20;;
10884;SDS011;5495;53.252;10.390;2022-08-04T11:42:50;3.40;;;2.20;;
10884;SDS011;5495;53.252;10.390;2022-08-04T11:45:23;2.43;;;2.23;;
10884;SDS011;5495;53.252;10.390;2022-08-04T11:48:05;1.80;;;1.70;;
10884;SDS011;5495;53.252;10.390;2022-08-04T11:50:37;3.20;;;2.20;;
10884;SDS011;5495;53.252;10.390;2022-08-04T11:53:09;4.77;;;2.03;;
10884;SDS011;5495;53.252;10.390;2022-08-04T11:55:41;3.40;;;2.17;;
10884;SDS011;5495;53.252;10.390;2022-08-04T11:58:13;4.00;;;2.07;;
10884;SDS011;5495;53.252;10.390;2022-08-04T12:00:44;3.93;;;1.80;;
10884;SDS011;5495;53.252;10.390;2022-08-04T12:03:24;2.30;;;2.10;;
10884;SDS011;5495;53.252;10.390;2022-08-04T12:06:05;2.70;;;2.00;;
10884;SDS011;5495;53.252;10.390;2022-08-04T12:08:49;5.77;;;2.40;;
10884;SDS011;5495;53.252;10.390;2022-08-04T12:11:37;3.97;;;2.10;;
10884;SDS011;5495;53.252;10.390;2022-08-04T12:14:25;3.70;;;2.20;;
10884;SDS011;5495;53.252;10.390;2022-08-04T12:17:02;3.23;;;2.00;;
10884;SDS011;5495;53.252;10.390;2022-08-04T12:19:32;2.40;;;2.13;;
10884;SDS011;5495;53.252;10.390;2022-08-04T12:22:07;3.30;;;2.00;;
10884;SDS011;5495;53.252;10.390;2022-08-04T12:24:43;4.43;;;2.23;;
10884;SDS011;5495;53.252;10.390;2022-08-04T12:27:14;2.93;;;2.40;;
10884;SDS011;5495;53.252;10.390;2022-08-04T12:29:45;3.70;;;1.87;;
10884;SDS011;5495;53.252;10.390;2022-08-04T12:32:17;2.60;;;2.10;;
10884;SDS011;5495;53.252;10.390;2022-08-04T12:34:53;2.93;;;2.00;;
10884;SDS011;5495;53.252;10.390;2022-08-04T12:37:33;3.90;;;2.00;;
10884;SDS011;5495;53.252;10.390;2022-08-04T12:40:13;3.20;;;2.07;;
10884;SDS011;5495;53.252;10.390;2022-08-04T12:42:45;2.30;;;2.07;;
10884;SDS011;5495;53.252;10.390;2022-08-04T12:45:22;2.97;;;1.90;;
10884;SDS011;5495;53.252;10.390;2022-08-04T12:47:51;2.43;;;1.90;;
10884;SDS011;5495;53.252;10.390;2022-08-04T12:50:22;2.20;;;2.00;;
10884;SDS011;5495;53.252;10.390;2022-08-04T12:52:50;2.27;;;1.80;;
10884;SDS011;5495;53.252;10.390;2022-08-04T12:55:23;4.73;;;2.20;;
10884;SDS011;5495;53.252;10.390;2022-08-04T12:57:57;2.50;;;2.00;;
10884;SDS011;5495;53.252;10.390;2022-08-04T13:00:28;2.23;;;2.03;;
10884;SDS011;5495;53.252;10.390;2022-08-04T13:03:01;2.10;;;1.90;;
10884;SDS011;5495;53.252;10.390;2022-08-04T13:05:32;1.90;;;1.80;;
10884;SDS011;5495;53.252;10.390;2022-08-04T13:08:02;2.03;;;1.90;;
10884;SDS011;5495;53.252;10.390;2022-08-04T13:10:35;2.30;;;2.10;;
10884;SDS011;5495;53.252;10.390;2022-08-04T13:13:05;2.47;;;2.27;;
10884;SDS011;5495;53.252;10.390;2022-08-04T13:15:40;4.67;;;2.10;;
10884;SDS011;5495;53.252;10.390;2022-08-04T13:18:08;2.97;;;2.30;;
10884;SDS011;5495;53.252;10.390;2022-08-04T13:20:39;4.03;;;2.17;;
10884;SDS011;5495;53.252;10.390;2022-08-04T13:23:10;2.63;;;2.10;;
10884;SDS011;5495;53.252;10.390;2022-08-04T13:25:42;8.33;;;2.30;;
10884;SDS011;5495;53.252;10.390;2022-08-04T13:28:18;5.20;;;2.13;;
10884;SDS011;5495;53.252;10.390;2022-08-04T13:30:48;3.10;;;1.97;;
10884;SDS011;5495;53.252;10.390;2022-08-04T13:33:21;2.40;;;2.20;;
10884;SDS011;5495;53.252;10.390;2022-08-04T13:35:54;2.20;;;2.00;;
10884;SDS011;5495;53.252;10.390;2022-08-04T13:38:26;3.30;;;2.10;;
10884;SDS011;5495;53.252;10.390;2022-08-04T13:40:56;2.67;;;2.27;;
10884;SDS011;5495;53.252;10.390;2022-08-04T13:43:28;4.57;;;2.60;;
10884;SDS011;5495;53.252;10.390;2022-08-04T13:45:59;26.67;;;3.60;;
10884;SDS011;5495;53.252;10.390;2022-08-04T13:48:32;5.43;;;2.10;;
10884;SDS011;5495;53.252;10.390;2022-08-04T13:51:01;6.70;;;2.20;;
10884;SDS011;5495;53.252;10.390;2022-08-04T13:53:31;2.23;;;2.03;;
10884;SDS011;5495;53.252;10.390;2022-08-04T13:56:02;3.83;;;2.10;;
10884;SDS011;5495;53.252;10.390;2022-08-04T13:58:33;2.50;;;2.30;;
10884;SDS011;5495;53.252;10.390;2022-08-04T14:01:06;2.60;;;2.40;;
10884;SDS011;5495;53.252;10.390;2022-08-04T14:03:40;4.73;;;2.40;;
10884;SDS011;5495;53.252;10.390;2022-08-04T14:06:20;4.00;;;2.50;;
10884;SDS011;5495;53.252;10.390;2022-08-04T14:08:51;5.73;;;2.40;;
10884;SDS011;5495;53.252;10.390;2022-08-04T14:11:32;2.40;;;2.17;;
10884;SDS011;5495;53.252;10.390;2022-08-04T14:14:05;2.63;;;2.00;;
10884;SDS011;5495;53.252;10.390;2022-08-04T14:16:53;4.00;;;2.27;;
10884;SDS011;5495;53.252;10.390;2022-08-04T14:19:25;4.10;;;2.17;;
10884;SDS011;5495;53.252;10.390;2022-08-04T14:21:55;2.40;;;2.20;;
10884;SDS011;5495;53.252;10.390;2022-08-04T14:24:25;5.23;;;2.30;;
10884;SDS011;5495;53.252;10.390;2022-08-04T14:26:59;3.27;;;2.00;;
10884;SDS011;5495;53.252;10.390;2022-08-04T14:29:35;4.93;;;2.90;;
10884;SDS011;5495;53.252;10.390;2022-08-04T14:32:04;2.87;;;2.10;;
10884;SDS011;5495;53.252;10.390;2022-08-04T14:34:37;3.77;;;2.50;;
10884;SDS011;5495;53.252;10.390;2022-08-04T14:37:06;4.50;;;2.30;;
10884;SDS011;5495;53.252;10.390;2022-08-04T14:39:35;2.30;;;2.10;;
10884;SDS011;5495;53.252;10.390;2022-08-04T14:42:05;7.27;;;2.30;;
10884;SDS011;5495;53.252;10.390;2022-08-04T14:44:50;6.83;;;2.40;;
10884;SDS011;5495;53.252;10.390;2022-08-04T14:47:20;5.87;;;2.23;;
10884;SDS011;5495;53.252;10.390;2022-08-04T14:50:06;2.27;;;2.10;;
10884;SDS011;5495;53.252;10.390;2022-08-04T14:52:34;2.63;;;2.13;;
10884;SDS011;5495;53.252;10.390;2022-08-04T14:55:15;3.20;;;2.00;;
10884;SDS011;5495;53.252;10.390;2022-08-04T14:57:45;2.20;;;2.00;;
10884;SDS011;5495;53.252;10.390;2022-08-04T15:00:13;2.60;;;2.20;;
10884;SDS011;5495;53.252;10.390;2022-08-04T15:02:56;2.30;;;2.10;;
10884;SDS011;5495;53.252;10.390;2022-08-04T15:05:27;2.83;;;2.27;;
10884;SDS011;5495;53.252;10.390;2022-08-04T15:07:56;1.87;;;1.77;;
10884;SDS011;5495;53.252;10.390;2022-08-04T15:10:24;2.30;;;2.10;;
10884;SDS011;5495;53.252;10.390;2022-08-04T15:12:53;7.27;;;1.93;;
10884;SDS011;5495;53.252;10.390;2022-08-04T15:15:23;2.67;;;2.40;;
10884;SDS011;5495;53.252;10.390;2022-08-04T15:17:50;4.60;;;2.00;;
10884;SDS011;5495;53.252;10.390;2022-08-04T15:20:19;4.33;;;2.07;;
10884;SDS011;5495;53.252;10.390;2022-08-04T15:22:47;2.30;;;2.10;;
10884;SDS011;5495;53.252;10.390;2022-08-04T15:25:15;4.37;;;2.13;;
10884;SDS011;5495;53.252;10.390;2022-08-04T15:27:44;3.80;;;2.10;;
10884;SDS011;5495;53.252;10.390;2022-08-04T15:30:15;1.93;;;1.83;;
10884;SDS011;5495;53.252;10.390;2022-08-04T15:32:46;4.73;;;2.00;;
10884;SDS011;5495;53.252;10.390;2022-08-04T15:35:19;4.23;;;2.20;;
10884;SDS011;5495;53.252;10.390;2022-08-04T15:37:52;1.97;;;1.80;;
10884;SDS011;5495;53.252;10.390;2022-08-04T15:40:26;4.93;;;2.10;;
10884;SDS011;5495;53.252;10.390;2022-08-04T15:43:10;5.23;;;2.20;;
10884;SDS011;5495;53.252;10.390;2022-08-04T15:45:49;4.63;;;1.87;;
10884;SDS011;5495;53.252;10.390;2022-08-04T15:48:22;4.90;;;2.07;;
10884;SDS011;5495;53.252;10.390;2022-08-04T15:56:47;8.07;;;3.07;;
10884;SDS011;5495;53.252;10.390;2022-08-04T15:59:20;14.53;;;3.70;;
10884;SDS011;5495;53.252;10.390;2022-08-04T16:02:38;16.77;;;3.97;;
10884;SDS011;5495;53.252;10.390;2022-08-04T16:08:09;48.23;;;5.23;;
10884;SDS011;5495;53.252;10.390;2022-08-04T16:10:50;8.20;;;2.80;;
10884;SDS011;5495;53.252;10.390;2022-08-04T16:13:19;9.77;;;3.07;;
10884;SDS011;5495;53.252;10.390;2022-08-04T16:15:51;8.57;;;2.23;;
10884;SDS011;5495;53.252;10.390;2022-08-04T16:18:40;6.37;;;2.00;;
10884;SDS011;5495;53.252;10.390;2022-08-04T16:21:21;4.60;;;2.07;;
10884;SDS011;5495;53.252;10.390;2022-08-04T16:23:56;4.13;;;1.63;;
10884;SDS011;5495;53.252;10.390;2022-08-04T16:26:41;5.50;;;1.83;;
10884;SDS011;5495;53.252;10.390;2022-08-04T16:29:30;4.17;;;2.20;;
10884;SDS011;5495;53.252;10.390;2022-08-04T16:32:13;3.10;;;2.00;;
10884;SDS011;5495;53.252;10.390;2022-08-04T16:34:48;4.67;;;1.73;;
10884;SDS011;5495;53.252;10.390;2022-08-04T16:37:19;2.53;;;1.90;;
10884;SDS011;5495;53.252;10.390;2022-08-04T16:39:48;2.27;;;1.80;;
10884;SDS011;5495;53.252;10.390;2022-08-04T16:42:36;5.50;;;1.80;;
10884;SDS011;5495;53.252;10.390;2022-08-04T16:45:13;4.67;;;2.00;;